sensor_id;sensor_type;location;lat;lon;timestamp;P1;durP1;ratioP1;P2;durP2;ratioP2
62610;SDS011;48683;48.084;17.272;2023-07-02T00:01:29;6.70;;;4.77;;
62610;SDS011;48683;48.084;17.272;2023-07-02T00:03:55;5.63;;;4.93;;
62610;SDS011;48683;48.084;17.272;2023-07-02T00:06:20;5.47;;;4.90;;
62610;SDS011;48683;48.084;17.272;2023-07-02T00:08:45;6.37;;;5.43;;
62610;SDS011;48683;48.084;17.272;2023-07-02T00:11:10;5.53;;;4.70;;
62610;SDS011;48683;48.084;17.272;2023-07-02T00:13:37;5.85;;;5.35;;
62610;SDS011;48683;48.084;17.272;2023-07-02T00:16:03;6.80;;;6.07;;
62610;SDS011;48683;48.084;17.272;2023-07-02T00:18:29;5.40;;;4.90;;
62610;SDS011;48683;48.084;17.272;2023-07-02T00:20:59;6.82;;;5.22;;
62610;SDS011;48683;48.084;17.272;2023-07-02T00:23:25;9.70;;;4.32;;
62610;SDS011;48683;48.084;17.272;2023-07-02T00:25:51;5.97;;;4.30;;
62610;SDS011;48683;48.084;17.272;2023-07-02T00:28:16;5.33;;;4.00;;
62610;SDS011;48683;48.084;17.272;2023-07-02T00:30:42;5.82;;;4.63;;
62610;SDS011;48683;48.084;17.272;2023-07-02T00:33:08;7.90;;;3.90;;
62610;SDS011;48683;48.084;17.272;2023-07-02T00:35:33;9.00;;;3.83;;
62610;SDS011;48683;48.084;17.272;2023-07-02T00:37:58;5.73;;;3.30;;
62610;SDS011;48683;48.084;17.272;2023-07-02T00:40:24;5.23;;;3.60;;
62610;SDS011;48683;48.084;17.272;2023-07-02T00:42:49;7.30;;;3.80;;
62610;SDS011;48683;48.084;17.272;2023-07-02T00:45:14;4.87;;;3.53;;
62610;SDS011;48683;48.084;17.272;2023-07-02T00:47:40;7.87;;;4.03;;
62610;SDS011;48683;48.084;17.272;2023-07-02T00:50:05;5.37;;;3.60;;
62610;SDS011;48683;48.084;17.272;2023-07-02T00:52:31;5.68;;;3.65;;
62610;SDS011;48683;48.084;17.272;2023-07-02T00:54:56;6.97;;;4.30;;
62610;SDS011;48683;48.084;17.272;2023-07-02T00:57:22;5.57;;;3.67;;
62610;SDS011;48683;48.084;17.272;2023-07-02T00:59:47;4.47;;;3.43;;
62610;SDS011;48683;48.084;17.272;2023-07-02T01:02:12;5.23;;;3.57;;
62610;SDS011;48683;48.084;17.272;2023-07-02T01:04:38;5.17;;;3.30;;
62610;SDS011;48683;48.084;17.272;2023-07-02T01:07:04;7.40;;;3.58;;
62610;SDS011;48683;48.084;17.272;2023-07-02T01:09:34;4.63;;;3.40;;
62610;SDS011;48683;48.084;17.272;2023-07-02T01:12:00;5.20;;;3.90;;
62610;SDS011;48683;48.084;17.272;2023-07-02T01:14:33;5.65;;;3.47;;
62610;SDS011;48683;48.084;17.272;2023-07-02T01:17:02;5.40;;;3.72;;
62610;SDS011;48683;48.084;17.272;2023-07-02T01:19:44;3.92;;;3.33;;
62610;SDS011;48683;48.084;17.272;2023-07-02T01:22:09;4.60;;;3.53;;
62610;SDS011;48683;48.084;17.272;2023-07-02T01:24:36;6.47;;;3.58;;
62610;SDS011;48683;48.084;17.272;2023-07-02T01:27:03;3.95;;;3.40;;
62610;SDS011;48683;48.084;17.272;2023-07-02T01:29:30;3.77;;;3.37;;
62610;SDS011;48683;48.084;17.272;2023-07-02T01:31:56;5.10;;;3.72;;
62610;SDS011;48683;48.084;17.272;2023-07-02T01:34:22;4.93;;;3.30;;
62610;SDS011;48683;48.084;17.272;2023-07-02T01:36:47;6.33;;;3.93;;
62610;SDS011;48683;48.084;17.272;2023-07-02T01:39:13;7.03;;;3.70;;
62610;SDS011;48683;48.084;17.272;2023-07-02T01:41:45;4.70;;;3.33;;
62610;SDS011;48683;48.084;17.272;2023-07-02T01:44:17;4.88;;;3.40;;
62610;SDS011;48683;48.084;17.272;2023-07-02T01:46:43;4.43;;;3.22;;
62610;SDS011;48683;48.084;17.272;2023-07-02T01:49:09;3.47;;;2.97;;
62610;SDS011;48683;48.084;17.272;2023-07-02T01:51:35;4.70;;;3.10;;
62610;SDS011;48683;48.084;17.272;2023-07-02T01:54:00;4.80;;;3.40;;
62610;SDS011;48683;48.084;17.272;2023-07-02T01:56:26;7.82;;;3.45;;
62610;SDS011;48683;48.084;17.272;2023-07-02T01:58:52;4.90;;;3.27;;
62610;SDS011;48683;48.084;17.272;2023-07-02T02:01:18;3.72;;;3.33;;
62610;SDS011;48683;48.084;17.272;2023-07-02T02:03:43;4.03;;;3.50;;
62610;SDS011;48683;48.084;17.272;2023-07-02T02:06:09;6.67;;;3.37;;
62610;SDS011;48683;48.084;17.272;2023-07-02T02:08:34;4.13;;;3.60;;
62610;SDS011;48683;48.084;17.272;2023-07-02T02:10:59;3.60;;;3.17;;
62610;SDS011;48683;48.084;17.272;2023-07-02T02:13:25;4.85;;;3.45;;
62610;SDS011;48683;48.084;17.272;2023-07-02T02:15:51;6.70;;;3.73;;
62610;SDS011;48683;48.084;17.272;2023-07-02T02:18:16;8.03;;;3.53;;
62610;SDS011;48683;48.084;17.272;2023-07-02T02:20:41;3.37;;;3.00;;
62610;SDS011;48683;48.084;17.272;2023-07-02T02:23:07;5.23;;;3.50;;
62610;SDS011;48683;48.084;17.272;2023-07-02T02:25:32;5.30;;;3.50;;
62610;SDS011;48683;48.084;17.272;2023-07-02T02:27:58;4.00;;;3.07;;
62610;SDS011;48683;48.084;17.272;2023-07-02T02:30:23;4.90;;;3.57;;
62610;SDS011;48683;48.084;17.272;2023-07-02T02:32:48;4.60;;;3.30;;
62610;SDS011;48683;48.084;17.272;2023-07-02T02:35:14;6.63;;;3.50;;
62610;SDS011;48683;48.084;17.272;2023-07-02T02:37:39;9.77;;;3.30;;
62610;SDS011;48683;48.084;17.272;2023-07-02T02:40:06;3.85;;;3.38;;
62610;SDS011;48683;48.084;17.272;2023-07-02T02:42:34;4.47;;;3.50;;
62610;SDS011;48683;48.084;17.272;2023-07-02T02:44:59;3.97;;;3.10;;
62610;SDS011;48683;48.084;17.272;2023-07-02T02:47:24;4.87;;;3.50;;
62610;SDS011;48683;48.084;17.272;2023-07-02T02:49:50;5.90;;;3.43;;
62610;SDS011;48683;48.084;17.272;2023-07-02T02:52:15;7.77;;;3.37;;
62610;SDS011;48683;48.084;17.272;2023-07-02T02:54:40;5.13;;;3.40;;
62610;SDS011;48683;48.084;17.272;2023-07-02T02:57:06;5.37;;;3.43;;
62610;SDS011;48683;48.084;17.272;2023-07-02T02:59:31;4.67;;;3.60;;
62610;SDS011;48683;48.084;17.272;2023-07-02T03:01:56;4.90;;;3.33;;
62610;SDS011;48683;48.084;17.272;2023-07-02T03:04:22;3.90;;;3.10;;
62610;SDS011;48683;48.084;17.272;2023-07-02T03:09:14;6.13;;;3.47;;
62610;SDS011;48683;48.084;17.272;2023-07-02T03:11:39;4.27;;;3.60;;
62610;SDS011;48683;48.084;17.272;2023-07-02T03:14:04;5.80;;;3.50;;
62610;SDS011;48683;48.084;17.272;2023-07-02T03:16:29;6.33;;;3.57;;
62610;SDS011;48683;48.084;17.272;2023-07-02T03:18:55;5.47;;;3.80;;
62610;SDS011;48683;48.084;17.272;2023-07-02T03:21:20;7.43;;;4.43;;
62610;SDS011;48683;48.084;17.272;2023-07-02T03:23:45;5.00;;;3.90;;
62610;SDS011;48683;48.084;17.272;2023-07-02T03:26:11;5.37;;;4.50;;
62610;SDS011;48683;48.084;17.272;2023-07-02T03:28:36;7.70;;;5.03;;
62610;SDS011;48683;48.084;17.272;2023-07-02T03:31:01;6.37;;;4.53;;
62610;SDS011;48683;48.084;17.272;2023-07-02T03:33:27;6.37;;;4.60;;
62610;SDS011;48683;48.084;17.272;2023-07-02T03:35:52;6.27;;;4.53;;
62610;SDS011;48683;48.084;17.272;2023-07-02T03:38:17;7.63;;;5.67;;
62610;SDS011;48683;48.084;17.272;2023-07-02T03:40:43;7.47;;;5.43;;
62610;SDS011;48683;48.084;17.272;2023-07-02T03:43:08;6.13;;;5.53;;
62610;SDS011;48683;48.084;17.272;2023-07-02T03:45:33;7.93;;;4.50;;
62610;SDS011;48683;48.084;17.272;2023-07-02T03:47:58;5.97;;;4.93;;
62610;SDS011;48683;48.084;17.272;2023-07-02T03:50:24;6.47;;;4.73;;
62610;SDS011;48683;48.084;17.272;2023-07-02T03:52:49;5.40;;;4.70;;
62610;SDS011;48683;48.084;17.272;2023-07-02T03:55:14;5.27;;;4.50;;
62610;SDS011;48683;48.084;17.272;2023-07-02T03:57:40;6.30;;;5.00;;
62610;SDS011;48683;48.084;17.272;2023-07-02T04:00:05;5.53;;;4.40;;
62610;SDS011;48683;48.084;17.272;2023-07-02T04:02:32;5.65;;;4.40;;
62610;SDS011;48683;48.084;17.272;2023-07-02T04:04:58;4.77;;;4.37;;
62610;SDS011;48683;48.084;17.272;2023-07-02T04:07:23;5.53;;;4.37;;
62610;SDS011;48683;48.084;17.272;2023-07-02T04:09:48;6.73;;;4.20;;
62610;SDS011;48683;48.084;17.272;2023-07-02T04:12:14;4.60;;;4.00;;
62610;SDS011;48683;48.084;17.272;2023-07-02T04:14:39;5.87;;;3.60;;
62610;SDS011;48683;48.084;17.272;2023-07-02T04:17:04;6.70;;;3.83;;
62610;SDS011;48683;48.084;17.272;2023-07-02T04:19:30;5.40;;;4.13;;
62610;SDS011;48683;48.084;17.272;2023-07-02T04:21:55;5.03;;;3.83;;
62610;SDS011;48683;48.084;17.272;2023-07-02T04:24:21;4.50;;;3.73;;
62610;SDS011;48683;48.084;17.272;2023-07-02T04:26:46;4.90;;;4.40;;
62610;SDS011;48683;48.084;17.272;2023-07-02T04:29:11;6.00;;;4.00;;
62610;SDS011;48683;48.084;17.272;2023-07-02T04:31:37;5.93;;;4.17;;
62610;SDS011;48683;48.084;17.272;2023-07-02T04:34:03;5.47;;;3.83;;
62610;SDS011;48683;48.084;17.272;2023-07-02T04:36:30;4.68;;;3.67;;
62610;SDS011;48683;48.084;17.272;2023-07-02T04:38:55;7.90;;;3.60;;
62610;SDS011;48683;48.084;17.272;2023-07-02T04:41:21;5.60;;;4.20;;
62610;SDS011;48683;48.084;17.272;2023-07-02T04:43:46;5.80;;;4.57;;
62610;SDS011;48683;48.084;17.272;2023-07-02T04:46:12;5.80;;;4.50;;
62610;SDS011;48683;48.084;17.272;2023-07-02T04:48:38;6.93;;;4.50;;
62610;SDS011;48683;48.084;17.272;2023-07-02T04:51:03;6.07;;;4.83;;
62610;SDS011;48683;48.084;17.272;2023-07-02T04:53:29;4.90;;;4.40;;
62610;SDS011;48683;48.084;17.272;2023-07-02T04:55:54;5.20;;;4.60;;
62610;SDS011;48683;48.084;17.272;2023-07-02T04:58:21;7.35;;;4.15;;
62610;SDS011;48683;48.084;17.272;2023-07-02T05:00:47;5.30;;;3.70;;
62610;SDS011;48683;48.084;17.272;2023-07-02T05:03:12;3.57;;;3.27;;
62610;SDS011;48683;48.084;17.272;2023-07-02T05:05:37;3.90;;;3.50;;
62610;SDS011;48683;48.084;17.272;2023-07-02T05:08:03;7.27;;;3.97;;
62610;SDS011;48683;48.084;17.272;2023-07-02T05:10:29;7.95;;;4.20;;
62610;SDS011;48683;48.084;17.272;2023-07-02T05:12:55;5.53;;;4.23;;
62610;SDS011;48683;48.084;17.272;2023-07-02T05:15:20;4.63;;;4.10;;
62610;SDS011;48683;48.084;17.272;2023-07-02T05:17:45;5.73;;;4.60;;
62610;SDS011;48683;48.084;17.272;2023-07-02T05:20:11;5.53;;;4.17;;
62610;SDS011;48683;48.084;17.272;2023-07-02T05:22:37;8.30;;;4.70;;
62610;SDS011;48683;48.084;17.272;2023-07-02T05:25:02;5.23;;;4.73;;
62610;SDS011;48683;48.084;17.272;2023-07-02T05:27:28;5.80;;;4.70;;
62610;SDS011;48683;48.084;17.272;2023-07-02T05:29:53;5.87;;;4.03;;
62610;SDS011;48683;48.084;17.272;2023-07-02T05:32:19;6.87;;;4.10;;
62610;SDS011;48683;48.084;17.272;2023-07-02T05:34:44;8.63;;;4.57;;
62610;SDS011;48683;48.084;17.272;2023-07-02T05:37:09;5.10;;;4.60;;
62610;SDS011;48683;48.084;17.272;2023-07-02T05:39:35;4.93;;;3.60;;
62610;SDS011;48683;48.084;17.272;2023-07-02T05:42:00;5.80;;;3.90;;
62610;SDS011;48683;48.084;17.272;2023-07-02T05:44:25;8.57;;;3.80;;
62610;SDS011;48683;48.084;17.272;2023-07-02T05:46:50;5.50;;;4.20;;
62610;SDS011;48683;48.084;17.272;2023-07-02T05:49:16;4.87;;;4.40;;
62610;SDS011;48683;48.084;17.272;2023-07-02T05:51:41;5.13;;;3.77;;
62610;SDS011;48683;48.084;17.272;2023-07-02T05:54:06;5.40;;;3.53;;
62610;SDS011;48683;48.084;17.272;2023-07-02T05:56:32;4.00;;;3.27;;
62610;SDS011;48683;48.084;17.272;2023-07-02T05:58:57;3.97;;;3.40;;
62610;SDS011;48683;48.084;17.272;2023-07-02T06:01:22;5.37;;;3.83;;
62610;SDS011;48683;48.084;17.272;2023-07-02T06:03:51;4.13;;;3.73;;
62610;SDS011;48683;48.084;17.272;2023-07-02T06:06:17;4.15;;;3.47;;
62610;SDS011;48683;48.084;17.272;2023-07-02T06:08:42;7.67;;;3.43;;
62610;SDS011;48683;48.084;17.272;2023-07-02T06:11:08;3.43;;;3.13;;
62610;SDS011;48683;48.084;17.272;2023-07-02T06:13:34;4.18;;;3.22;;
62610;SDS011;48683;48.084;17.272;2023-07-02T06:16:00;5.37;;;3.90;;
62610;SDS011;48683;48.084;17.272;2023-07-02T06:18:25;4.37;;;3.60;;
62610;SDS011;48683;48.084;17.272;2023-07-02T06:20:50;3.87;;;3.20;;
62610;SDS011;48683;48.084;17.272;2023-07-02T06:23:16;4.40;;;3.37;;
62610;SDS011;48683;48.084;17.272;2023-07-02T06:25:41;6.10;;;3.67;;
62610;SDS011;48683;48.084;17.272;2023-07-02T06:28:07;3.50;;;3.20;;
62610;SDS011;48683;48.084;17.272;2023-07-02T06:30:32;5.20;;;3.33;;
62610;SDS011;48683;48.084;17.272;2023-07-02T06:32:57;5.33;;;3.43;;
62610;SDS011;48683;48.084;17.272;2023-07-02T06:35:23;4.53;;;3.60;;
62610;SDS011;48683;48.084;17.272;2023-07-02T06:37:48;3.83;;;3.40;;
62610;SDS011;48683;48.084;17.272;2023-07-02T06:40:13;6.57;;;3.47;;
62610;SDS011;48683;48.084;17.272;2023-07-02T06:42:39;4.00;;;3.60;;
62610;SDS011;48683;48.084;17.272;2023-07-02T06:45:05;5.40;;;3.50;;
62610;SDS011;48683;48.084;17.272;2023-07-02T06:47:31;4.03;;;3.63;;
62610;SDS011;48683;48.084;17.272;2023-07-02T06:49:57;4.33;;;3.93;;
62610;SDS011;48683;48.084;17.272;2023-07-02T06:52:23;8.05;;;3.60;;
62610;SDS011;48683;48.084;17.272;2023-07-02T06:54:48;4.00;;;3.10;;
62610;SDS011;48683;48.084;17.272;2023-07-02T06:57:14;3.97;;;3.35;;
62610;SDS011;48683;48.084;17.272;2023-07-02T06:59:40;3.93;;;3.33;;
62610;SDS011;48683;48.084;17.272;2023-07-02T07:02:05;4.13;;;3.27;;
62610;SDS011;48683;48.084;17.272;2023-07-02T07:04:31;6.57;;;3.35;;
62610;SDS011;48683;48.084;17.272;2023-07-02T07:06:56;4.33;;;3.33;;
62610;SDS011;48683;48.084;17.272;2023-07-02T07:09:22;3.40;;;2.90;;
62610;SDS011;48683;48.084;17.272;2023-07-02T07:11:47;4.00;;;3.60;;
62610;SDS011;48683;48.084;17.272;2023-07-02T07:14:12;4.50;;;3.27;;
62610;SDS011;48683;48.084;17.272;2023-07-02T07:16:38;5.00;;;2.97;;
62610;SDS011;48683;48.084;17.272;2023-07-02T07:19:04;4.10;;;2.67;;
62610;SDS011;48683;48.084;17.272;2023-07-02T07:21:29;6.10;;;2.97;;
62610;SDS011;48683;48.084;17.272;2023-07-02T07:23:54;4.43;;;3.00;;
62610;SDS011;48683;48.084;17.272;2023-07-02T07:26:20;4.00;;;3.17;;
62610;SDS011;48683;48.084;17.272;2023-07-02T07:28:45;5.13;;;2.80;;
62610;SDS011;48683;48.084;17.272;2023-07-02T07:31:11;5.83;;;3.20;;
62610;SDS011;48683;48.084;17.272;2023-07-02T07:33:36;6.20;;;2.73;;
62610;SDS011;48683;48.084;17.272;2023-07-02T07:36:01;3.03;;;2.73;;
62610;SDS011;48683;48.084;17.272;2023-07-02T07:38:27;3.20;;;2.90;;
62610;SDS011;48683;48.084;17.272;2023-07-02T07:40:52;4.43;;;2.80;;
62610;SDS011;48683;48.084;17.272;2023-07-02T07:43:17;4.40;;;2.33;;
62610;SDS011;48683;48.084;17.272;2023-07-02T07:45:43;5.50;;;3.20;;
62610;SDS011;48683;48.084;17.272;2023-07-02T07:48:08;5.17;;;3.07;;
62610;SDS011;48683;48.084;17.272;2023-07-02T07:50:33;2.97;;;2.67;;
62610;SDS011;48683;48.084;17.272;2023-07-02T07:52:59;5.00;;;3.03;;
62610;SDS011;48683;48.084;17.272;2023-07-02T07:55:24;5.47;;;3.30;;
62610;SDS011;48683;48.084;17.272;2023-07-02T07:57:50;3.17;;;2.73;;
62610;SDS011;48683;48.084;17.272;2023-07-02T08:00:15;4.30;;;2.87;;
62610;SDS011;48683;48.084;17.272;2023-07-02T08:02:42;6.30;;;3.47;;
62610;SDS011;48683;48.084;17.272;2023-07-02T08:05:07;3.42;;;2.88;;
62610;SDS011;48683;48.084;17.272;2023-07-02T08:07:33;4.43;;;3.07;;
62610;SDS011;48683;48.084;17.272;2023-07-02T08:09:59;4.53;;;3.13;;
62610;SDS011;48683;48.084;17.272;2023-07-02T08:12:25;3.72;;;2.58;;
62610;SDS011;48683;48.084;17.272;2023-07-02T08:14:54;4.10;;;3.28;;
62610;SDS011;48683;48.084;17.272;2023-07-02T08:17:20;6.43;;;3.08;;
62610;SDS011;48683;48.084;17.272;2023-07-02T08:19:45;3.53;;;2.87;;
62610;SDS011;48683;48.084;17.272;2023-07-02T08:22:11;4.17;;;3.07;;
62610;SDS011;48683;48.084;17.272;2023-07-02T08:24:37;4.18;;;3.20;;
62610;SDS011;48683;48.084;17.272;2023-07-02T08:27:02;2.97;;;2.67;;
62610;SDS011;48683;48.084;17.272;2023-07-02T08:29:28;4.27;;;2.80;;
62610;SDS011;48683;48.084;17.272;2023-07-02T08:31:54;3.10;;;2.75;;
62610;SDS011;48683;48.084;17.272;2023-07-02T08:34:20;3.30;;;2.67;;
62610;SDS011;48683;48.084;17.272;2023-07-02T08:36:46;3.13;;;2.70;;
62610;SDS011;48683;48.084;17.272;2023-07-02T08:39:11;5.47;;;2.60;;
62610;SDS011;48683;48.084;17.272;2023-07-02T08:41:46;4.27;;;2.60;;
62610;SDS011;48683;48.084;17.272;2023-07-02T08:44:13;4.18;;;2.42;;
62610;SDS011;48683;48.084;17.272;2023-07-02T08:46:39;5.13;;;2.47;;
62610;SDS011;48683;48.084;17.272;2023-07-02T08:49:06;2.13;;;2.03;;
62610;SDS011;48683;48.084;17.272;2023-07-02T08:51:32;2.78;;;2.40;;
62610;SDS011;48683;48.084;17.272;2023-07-02T08:53:57;3.30;;;2.53;;
62610;SDS011;48683;48.084;17.272;2023-07-02T08:56:22;5.17;;;3.17;;
62610;SDS011;48683;48.084;17.272;2023-07-02T08:58:47;5.00;;;3.07;;
62610;SDS011;48683;48.084;17.272;2023-07-02T09:01:13;3.97;;;2.63;;
62610;SDS011;48683;48.084;17.272;2023-07-02T09:03:40;3.03;;;2.70;;
62610;SDS011;48683;48.084;17.272;2023-07-02T09:06:06;3.38;;;2.60;;
62610;SDS011;48683;48.084;17.272;2023-07-02T09:08:33;4.15;;;2.42;;
62610;SDS011;48683;48.084;17.272;2023-07-02T09:11:08;3.05;;;2.60;;
62610;SDS011;48683;48.084;17.272;2023-07-02T09:13:44;3.05;;;2.60;;
62610;SDS011;48683;48.084;17.272;2023-07-02T09:18:55;3.85;;;2.50;;
62610;SDS011;48683;48.084;17.272;2023-07-02T09:21:26;2.25;;;2.05;;
62610;SDS011;48683;48.084;17.272;2023-07-02T09:26:52;3.15;;;2.17;;
62610;SDS011;48683;48.084;17.272;2023-07-02T09:29:21;2.55;;;1.90;;
62610;SDS011;48683;48.084;17.272;2023-07-02T09:32:00;2.42;;;1.70;;
62610;SDS011;48683;48.084;17.272;2023-07-02T09:36:58;2.72;;;2.00;;
62610;SDS011;48683;48.084;17.272;2023-07-02T09:39:28;2.42;;;1.58;;
62610;SDS011;48683;48.084;17.272;2023-07-02T09:41:57;2.90;;;1.95;;
62610;SDS011;48683;48.084;17.272;2023-07-02T09:44:30;2.33;;;1.88;;
62610;SDS011;48683;48.084;17.272;2023-07-02T09:47:04;2.17;;;2.00;;
62610;SDS011;48683;48.084;17.272;2023-07-02T09:49:33;3.42;;;1.92;;
62610;SDS011;48683;48.084;17.272;2023-07-02T09:52:30;2.50;;;2.30;;
62610;SDS011;48683;48.084;17.272;2023-07-02T09:54:58;2.45;;;2.25;;
62610;SDS011;48683;48.084;17.272;2023-07-02T09:57:23;4.63;;;2.17;;
62610;SDS011;48683;48.084;17.272;2023-07-02T09:59:49;2.20;;;2.00;;
62610;SDS011;48683;48.084;17.272;2023-07-02T10:02:15;2.85;;;2.03;;
62610;SDS011;48683;48.084;17.272;2023-07-02T10:04:42;3.30;;;2.20;;
62610;SDS011;48683;48.084;17.272;2023-07-02T10:07:09;1.77;;;1.60;;
62610;SDS011;48683;48.084;17.272;2023-07-02T10:09:52;2.28;;;1.98;;
62610;SDS011;48683;48.084;17.272;2023-07-02T10:12:18;1.80;;;1.70;;
62610;SDS011;48683;48.084;17.272;2023-07-02T10:14:48;2.75;;;2.03;;
62610;SDS011;48683;48.084;17.272;2023-07-02T10:17:28;2.20;;;2.00;;
62610;SDS011;48683;48.084;17.272;2023-07-02T10:20:06;2.30;;;2.10;;
62610;SDS011;48683;48.084;17.272;2023-07-02T10:22:45;2.72;;;2.33;;
62610;SDS011;48683;48.084;17.272;2023-07-02T10:25:23;1.80;;;1.70;;
62610;SDS011;48683;48.084;17.272;2023-07-02T10:27:49;2.47;;;2.25;;
62610;SDS011;48683;48.084;17.272;2023-07-02T10:30:14;1.93;;;1.83;;
62610;SDS011;48683;48.084;17.272;2023-07-02T10:32:39;1.60;;;1.40;;
62610;SDS011;48683;48.084;17.272;2023-07-02T10:35:17;1.67;;;1.57;;
62610;SDS011;48683;48.084;17.272;2023-07-02T10:37:43;3.78;;;1.90;;
62610;SDS011;48683;48.084;17.272;2023-07-02T10:40:10;1.73;;;1.63;;
62610;SDS011;48683;48.084;17.272;2023-07-02T10:42:48;2.90;;;1.70;;
62610;SDS011;48683;48.084;17.272;2023-07-02T10:45:15;2.10;;;1.70;;
62610;SDS011;48683;48.084;17.272;2023-07-02T10:47:41;2.25;;;1.83;;
62610;SDS011;48683;48.084;17.272;2023-07-02T10:52:46;1.95;;;1.77;;
62610;SDS011;48683;48.084;17.272;2023-07-02T10:55:21;5.57;;;1.90;;
62610;SDS011;48683;48.084;17.272;2023-07-02T10:57:49;2.33;;;1.55;;
62610;SDS011;48683;48.084;17.272;2023-07-02T11:00:18;1.90;;;1.70;;
62610;SDS011;48683;48.084;17.272;2023-07-02T11:02:44;1.70;;;1.58;;
62610;SDS011;48683;48.084;17.272;2023-07-02T11:05:09;7.23;;;1.77;;
62610;SDS011;48683;48.084;17.272;2023-07-02T11:07:39;2.75;;;1.80;;
62610;SDS011;48683;48.084;17.272;2023-07-02T11:10:06;2.25;;;1.90;;
62610;SDS011;48683;48.084;17.272;2023-07-02T11:12:32;1.92;;;1.83;;
62610;SDS011;48683;48.084;17.272;2023-07-02T11:15:07;2.07;;;1.73;;
62610;SDS011;48683;48.084;17.272;2023-07-02T11:17:36;2.72;;;2.00;;
62610;SDS011;48683;48.084;17.272;2023-07-02T11:20:02;1.70;;;1.60;;
62610;SDS011;48683;48.084;17.272;2023-07-02T11:22:30;2.13;;;2.03;;
62610;SDS011;48683;48.084;17.272;2023-07-02T11:25:16;3.45;;;2.13;;
62610;SDS011;48683;48.084;17.272;2023-07-02T11:27:42;2.70;;;2.15;;
62610;SDS011;48683;48.084;17.272;2023-07-02T11:30:08;4.78;;;2.25;;
62610;SDS011;48683;48.084;17.272;2023-07-02T11:32:55;2.30;;;2.00;;
62610;SDS011;48683;48.084;17.272;2023-07-02T11:35:20;2.33;;;2.13;;
62610;SDS011;48683;48.084;17.272;2023-07-02T11:37:47;3.30;;;2.10;;
62610;SDS011;48683;48.084;17.272;2023-07-02T11:40:19;2.38;;;2.15;;
62610;SDS011;48683;48.084;17.272;2023-07-02T11:42:44;2.70;;;2.50;;
62610;SDS011;48683;48.084;17.272;2023-07-02T11:45:10;2.40;;;2.20;;
62610;SDS011;48683;48.084;17.272;2023-07-02T11:47:35;2.53;;;2.33;;
62610;SDS011;48683;48.084;17.272;2023-07-02T11:50:02;3.22;;;2.00;;
62610;SDS011;48683;48.084;17.272;2023-07-02T11:52:28;2.53;;;2.25;;
62610;SDS011;48683;48.084;17.272;2023-07-02T11:54:53;2.30;;;2.10;;
62610;SDS011;48683;48.084;17.272;2023-07-02T11:57:19;2.40;;;2.20;;
62610;SDS011;48683;48.084;17.272;2023-07-02T11:59:45;2.53;;;2.33;;
62610;SDS011;48683;48.084;17.272;2023-07-02T12:02:10;3.73;;;2.07;;
62610;SDS011;48683;48.084;17.272;2023-07-02T12:04:35;2.50;;;2.10;;
62610;SDS011;48683;48.084;17.272;2023-07-02T12:07:01;2.33;;;2.13;;
62610;SDS011;48683;48.084;17.272;2023-07-02T12:09:28;2.88;;;2.45;;
62610;SDS011;48683;48.084;17.272;2023-07-02T12:11:53;3.03;;;2.70;;
62610;SDS011;48683;48.084;17.272;2023-07-02T12:14:19;4.10;;;2.10;;
62610;SDS011;48683;48.084;17.272;2023-07-02T12:16:44;3.10;;;2.30;;
62610;SDS011;48683;48.084;17.272;2023-07-02T12:19:09;3.60;;;2.13;;
62610;SDS011;48683;48.084;17.272;2023-07-02T12:21:35;2.50;;;2.30;;
62610;SDS011;48683;48.084;17.272;2023-07-02T12:24:00;4.93;;;2.70;;
62610;SDS011;48683;48.084;17.272;2023-07-02T12:26:25;4.57;;;2.40;;
62610;SDS011;48683;48.084;17.272;2023-07-02T12:28:51;3.67;;;2.40;;
62610;SDS011;48683;48.084;17.272;2023-07-02T12:31:16;2.90;;;2.47;;
62610;SDS011;48683;48.084;17.272;2023-07-02T12:33:41;3.50;;;2.70;;
62610;SDS011;48683;48.084;17.272;2023-07-02T12:36:07;3.77;;;2.63;;
62610;SDS011;48683;48.084;17.272;2023-07-02T12:38:32;3.67;;;2.53;;
62610;SDS011;48683;48.084;17.272;2023-07-02T12:40:57;4.27;;;2.53;;
62610;SDS011;48683;48.084;17.272;2023-07-02T12:43:23;3.53;;;2.43;;
62610;SDS011;48683;48.084;17.272;2023-07-02T12:45:48;4.83;;;2.57;;
62610;SDS011;48683;48.084;17.272;2023-07-02T12:53:05;2.73;;;2.53;;
62610;SDS011;48683;48.084;17.272;2023-07-02T12:55:31;5.27;;;2.50;;
62610;SDS011;48683;48.084;17.272;2023-07-02T12:57:56;2.60;;;2.30;;
62610;SDS011;48683;48.084;17.272;2023-07-02T13:00:22;3.00;;;2.43;;
62610;SDS011;48683;48.084;17.272;2023-07-02T13:02:48;4.93;;;2.67;;
62610;SDS011;48683;48.084;17.272;2023-07-02T13:05:14;2.97;;;2.55;;
62610;SDS011;48683;48.084;17.272;2023-07-02T13:07:39;4.70;;;2.50;;
62610;SDS011;48683;48.084;17.272;2023-07-02T13:10:05;3.13;;;2.15;;
62610;SDS011;48683;48.084;17.272;2023-07-02T13:12:31;3.00;;;2.70;;
62610;SDS011;48683;48.084;17.272;2023-07-02T13:14:56;3.83;;;2.40;;
62610;SDS011;48683;48.084;17.272;2023-07-02T13:17:22;2.30;;;2.10;;
62610;SDS011;48683;48.084;17.272;2023-07-02T13:19:47;3.00;;;2.63;;
62610;SDS011;48683;48.084;17.272;2023-07-02T13:24:39;3.03;;;2.63;;
62610;SDS011;48683;48.084;17.272;2023-07-02T13:29:33;3.50;;;2.53;;
62610;SDS011;48683;48.084;17.272;2023-07-02T13:31:58;2.63;;;2.30;;
62610;SDS011;48683;48.084;17.272;2023-07-02T13:34:24;3.83;;;2.27;;
62610;SDS011;48683;48.084;17.272;2023-07-02T13:36:49;2.90;;;2.50;;
62610;SDS011;48683;48.084;17.272;2023-07-02T13:39:14;3.67;;;2.30;;
62610;SDS011;48683;48.084;17.272;2023-07-02T13:41:40;5.10;;;2.57;;
62610;SDS011;48683;48.084;17.272;2023-07-02T13:44:05;3.57;;;2.17;;
62610;SDS011;48683;48.084;17.272;2023-07-02T13:46:30;4.43;;;2.50;;
62610;SDS011;48683;48.084;17.272;2023-07-02T13:48:56;2.90;;;2.50;;
62610;SDS011;48683;48.084;17.272;2023-07-02T13:51:21;5.17;;;2.50;;
62610;SDS011;48683;48.084;17.272;2023-07-02T13:53:46;5.50;;;2.60;;
62610;SDS011;48683;48.084;17.272;2023-07-02T13:56:12;2.50;;;2.30;;
62610;SDS011;48683;48.084;17.272;2023-07-02T14:01:21;4.90;;;2.10;;
62610;SDS011;48683;48.084;17.272;2023-07-02T14:03:46;2.42;;;2.22;;
62610;SDS011;48683;48.084;17.272;2023-07-02T14:06:12;6.40;;;2.43;;
62610;SDS011;48683;48.084;17.272;2023-07-02T14:08:37;4.10;;;1.90;;
62610;SDS011;48683;48.084;17.272;2023-07-02T14:11:03;3.13;;;1.80;;
62610;SDS011;48683;48.084;17.272;2023-07-02T14:13:29;2.78;;;2.25;;
62610;SDS011;48683;48.084;17.272;2023-07-02T14:15:54;4.40;;;1.90;;
62610;SDS011;48683;48.084;17.272;2023-07-02T14:18:20;2.80;;;1.65;;
62610;SDS011;48683;48.084;17.272;2023-07-02T14:20:46;3.00;;;2.07;;
62610;SDS011;48683;48.084;17.272;2023-07-02T14:23:11;5.37;;;1.70;;
62610;SDS011;48683;48.084;17.272;2023-07-02T14:25:36;2.57;;;2.10;;
62610;SDS011;48683;48.084;17.272;2023-07-02T14:28:02;2.73;;;1.70;;
62610;SDS011;48683;48.084;17.272;2023-07-02T14:30:27;3.53;;;1.93;;
62610;SDS011;48683;48.084;17.272;2023-07-02T14:32:52;1.60;;;1.50;;
62610;SDS011;48683;48.084;17.272;2023-07-02T14:35:18;2.83;;;1.73;;
62610;SDS011;48683;48.084;17.272;2023-07-02T14:37:47;2.50;;;1.63;;
62610;SDS011;48683;48.084;17.272;2023-07-02T14:40:12;2.55;;;1.60;;
62610;SDS011;48683;48.084;17.272;2023-07-02T14:42:37;3.50;;;1.70;;
62610;SDS011;48683;48.084;17.272;2023-07-02T14:45:03;6.07;;;2.20;;
62610;SDS011;48683;48.084;17.272;2023-07-02T14:47:29;2.17;;;1.60;;
62610;SDS011;48683;48.084;17.272;2023-07-02T14:49:54;1.93;;;1.63;;
62610;SDS011;48683;48.084;17.272;2023-07-02T14:52:20;2.37;;;2.00;;
62610;SDS011;48683;48.084;17.272;2023-07-02T14:54:45;1.97;;;1.77;;